createdAt,value
2018-10-11T00:01:58.443Z,46.07
2018-10-11T00:04:26.748Z,47.20
2018-10-11T00:06:55.036Z,49.07
2018-10-11T00:09:23.354Z,49.23
2018-10-11T00:11:51.675Z,49.60
2018-10-11T00:14:19.936Z,44.33
2018-10-11T00:16:48.263Z,43.37
2018-10-11T00:19:16.683Z,43.60
2018-10-11T00:21:44.992Z,41.77
2018-10-11T00:24:13.319Z,48.60
2018-10-11T00:26:41.780Z,50.53
2018-10-11T00:29:10.199Z,53.40
2018-10-11T00:31:38.488Z,50.87
2018-10-11T00:34:06.837Z,47.13
2018-10-11T00:36:35.124Z,41.30
2018-10-11T00:39:05.354Z,44.70
2018-10-11T00:41:33.649Z,44.27
2018-10-11T00:44:02.024Z,50.47
2018-10-11T00:46:30.435Z,40.50
2018-10-11T00:48:58.750Z,47.03
2018-10-11T00:51:27.090Z,50.83
2018-10-11T00:53:55.434Z,46.53
2018-10-11T00:56:23.748Z,51.70
2018-10-11T00:58:52.049Z,47.53
2018-10-11T01:01:20.566Z,44.77
2018-10-11T01:03:48.856Z,47.30
2018-10-11T01:06:17.328Z,47.70
2018-10-11T01:08:45.672Z,42.50
2018-10-11T01:11:14.141Z,43.70
2018-10-11T01:13:42.580Z,48.07
2018-10-11T01:16:10.921Z,48.90
2018-10-11T01:18:39.246Z,42.67
2018-10-11T01:21:07.669Z,47.43
2018-10-11T01:23:36.245Z,47.80
2018-10-11T01:26:04.532Z,42.43
2018-10-11T01:28:33.085Z,43.30
2018-10-11T01:31:06.639Z,43.63
2018-10-11T01:33:34.914Z,44.93
2018-10-11T01:36:03.366Z,48.35
2018-10-11T01:38:31.631Z,49.00
2018-10-11T01:40:59.954Z,50.67
2018-10-11T01:43:28.353Z,52.07
2018-10-11T01:45:56.605Z,61.03
2018-10-11T01:48:25.613Z,51.80
2018-10-11T01:50:53.890Z,54.77
2018-10-11T01:53:22.235Z,58.03
2018-10-11T01:55:50.556Z,57.50
2018-10-11T01:58:18.841Z,52.07
2018-10-11T02:00:47.130Z,53.07
2018-10-11T02:03:15.519Z,54.47
2018-10-11T02:05:43.833Z,50.10
2018-10-11T02:08:12.224Z,51.23
2018-10-11T02:10:40.554Z,51.13
2018-10-11T02:13:08.822Z,44.67
2018-10-11T02:15:37.111Z,50.85
2018-10-11T02:18:05.557Z,47.73
2018-10-11T02:20:33.836Z,48.40
2018-10-11T02:23:02.211Z,49.97
2018-10-11T02:25:30.544Z,49.67
2018-10-11T02:27:58.947Z,57.30
2018-10-11T02:30:27.474Z,49.57
2018-10-11T02:32:55.845Z,52.17
2018-10-11T02:35:24.209Z,53.10
2018-10-11T02:37:52.528Z,51.40
2018-10-11T02:40:20.878Z,52.50
2018-10-11T02:42:49.189Z,48.80
2018-10-11T02:45:17.443Z,61.97
2018-10-11T02:47:45.760Z,60.23
2018-10-11T02:50:14.286Z,81.00
2018-10-11T02:52:42.580Z,56.20
2018-10-11T02:55:17.293Z,54.83
2018-10-11T02:57:56.793Z,54.90
2018-10-11T03:00:25.088Z,63.00
2018-10-11T03:02:53.502Z,53.37
2018-10-11T03:05:21.828Z,64.07
2018-10-11T03:07:50.362Z,54.33
2018-10-11T03:10:18.620Z,55.97
2018-10-11T03:12:46.917Z,55.70
2018-10-11T03:15:15.324Z,57.00
2018-10-11T03:17:43.625Z,55.80
2018-10-11T03:20:11.946Z,68.10
2018-10-11T03:22:40.280Z,55.83
2018-10-11T03:25:08.736Z,56.40
2018-10-11T03:27:37.160Z,60.47
2018-10-11T03:30:05.541Z,53.23
2018-10-11T03:32:33.855Z,56.13
2018-10-11T03:35:02.132Z,57.27
2018-10-11T03:37:30.615Z,59.10
2018-10-11T03:39:58.862Z,59.07
2018-10-11T03:42:27.227Z,53.43
2018-10-11T03:44:55.527Z,58.25
2018-10-11T03:47:23.922Z,63.00
2018-10-11T03:49:52.234Z,56.13
2018-10-11T03:52:20.542Z,59.97
2018-10-11T03:54:48.912Z,56.70
2018-10-11T03:57:17.220Z,61.07
2018-10-11T03:59:45.481Z,70.37
2018-10-11T04:02:13.953Z,60.17
2018-10-11T04:04:42.506Z,64.03
2018-10-11T04:07:10.810Z,66.05
2018-10-11T04:09:39.081Z,65.27
2018-10-11T04:12:07.502Z,68.80
2018-10-11T04:14:35.792Z,73.90
2018-10-11T04:17:04.071Z,76.17
2018-10-11T04:19:32.628Z,82.93
2018-10-11T04:22:00.993Z,63.78
2018-10-11T04:24:29.336Z,66.67
2018-10-11T04:26:57.641Z,73.87
2018-10-11T04:29:26.300Z,77.08
2018-10-11T04:31:54.786Z,71.07
2018-10-11T04:34:23.112Z,73.25
2018-10-11T04:36:51.584Z,77.35
2018-10-11T04:39:19.921Z,73.87
2018-10-11T04:41:48.344Z,67.70
2018-10-11T04:44:16.632Z,67.95
2018-10-11T04:46:45.400Z,72.57
2018-10-11T04:49:13.809Z,64.50
2018-10-11T04:51:42.979Z,75.15
2018-10-11T04:54:11.298Z,71.73
2018-10-11T04:56:39.774Z,65.35
2018-10-11T04:59:08.280Z,65.17
2018-10-11T05:01:36.620Z,70.90
2018-10-11T05:04:04.912Z,66.72
2018-10-11T05:06:33.199Z,72.42
2018-10-11T05:09:01.585Z,69.07
2018-10-11T05:11:29.922Z,62.17
2018-10-11T05:14:00.027Z,58.00
2018-10-11T05:16:28.517Z,63.63
2018-10-11T05:18:59.746Z,69.15
2018-10-11T05:21:28.243Z,66.50
2018-10-11T05:23:56.790Z,62.00
2018-10-11T05:26:25.229Z,60.85
2018-10-11T05:28:53.700Z,65.90
2018-10-11T05:31:22.224Z,71.47
2018-10-11T05:33:51.318Z,81.97
2018-10-11T05:36:19.622Z,68.63
2018-10-11T05:38:48.034Z,54.45
2018-10-11T05:41:16.372Z,62.70
2018-10-11T05:43:44.760Z,60.28
2018-10-11T05:46:19.587Z,64.80
2018-10-11T05:48:47.874Z,63.83
2018-10-11T05:51:16.234Z,61.97
2018-10-11T05:53:44.671Z,60.67
2018-10-11T05:56:17.397Z,63.15
2018-10-11T05:58:47.056Z,61.45
2018-10-11T06:01:15.461Z,57.73
2018-10-11T06:03:44.664Z,61.33
2018-10-11T06:06:13.155Z,56.53
2018-10-11T06:08:41.502Z,63.27
2018-10-11T06:11:09.903Z,57.67
2018-10-11T06:13:38.258Z,62.45
2018-10-11T06:16:06.731Z,70.10
2018-10-11T06:18:35.071Z,64.40
2018-10-11T06:21:03.318Z,69.35
2018-10-11T06:23:31.609Z,77.20
2018-10-11T06:25:59.944Z,77.47
2018-10-11T06:28:28.227Z,89.97
2018-10-11T06:30:56.695Z,81.07
2018-10-11T06:33:24.968Z,58.23
2018-10-11T06:35:53.301Z,66.43
2018-10-11T06:38:21.856Z,66.03
2018-10-11T06:40:50.180Z,60.93
2018-10-11T06:43:18.471Z,73.37
2018-10-11T06:45:46.851Z,64.87
2018-10-11T06:48:15.198Z,68.40
2018-10-11T06:50:43.971Z,73.73
2018-10-11T06:53:12.402Z,74.67
2018-10-11T06:55:40.718Z,64.87
2018-10-11T06:58:09.000Z,67.70
2018-10-11T07:00:37.391Z,68.50
2018-10-11T07:03:05.929Z,71.60
2018-10-11T07:05:34.159Z,67.80
2018-10-11T07:08:02.465Z,77.27
2018-10-11T07:10:30.806Z,69.30
2018-10-11T07:12:59.124Z,72.47
2018-10-11T07:15:27.673Z,62.70
2018-10-11T07:17:56.133Z,75.20
2018-10-11T07:20:24.554Z,76.43
2018-10-11T07:22:52.915Z,65.67
2018-10-11T07:25:21.168Z,63.90
2018-10-11T07:27:49.475Z,59.83
2018-10-11T07:30:17.831Z,77.00
2018-10-11T07:32:46.166Z,63.73
2018-10-11T07:35:14.485Z,62.73
2018-10-11T07:37:42.887Z,70.47
2018-10-11T07:40:11.138Z,59.70
2018-10-11T07:42:39.402Z,68.83
2018-10-11T07:45:07.720Z,64.57
2018-10-11T07:47:36.152Z,65.73
2018-10-11T07:50:04.896Z,65.40
2018-10-11T07:52:33.224Z,54.20
2018-10-11T07:55:01.553Z,51.70
2018-10-11T07:57:29.920Z,63.93
2018-10-11T07:59:58.215Z,57.70
2018-10-11T08:02:26.496Z,61.80
2018-10-11T08:04:54.779Z,55.80
2018-10-11T08:07:23.243Z,63.17
2018-10-11T08:09:51.536Z,67.53
2018-10-11T08:12:19.804Z,58.83
2018-10-11T08:14:48.147Z,70.73
2018-10-11T08:17:16.912Z,52.37
2018-10-11T08:19:44.989Z,60.30
2018-10-11T08:22:13.207Z,64.20
2018-10-11T08:24:41.623Z,53.20
2018-10-11T08:27:09.999Z,58.13
2018-10-11T08:29:38.224Z,55.00
2018-10-11T08:32:06.575Z,58.93
2018-10-11T08:34:34.912Z,50.47
2018-10-11T08:37:03.236Z,49.80
2018-10-11T08:39:31.578Z,112.77
2018-10-11T08:41:59.997Z,52.13
2018-10-11T08:44:28.286Z,61.13
2018-10-11T08:46:56.660Z,50.73
2018-10-11T08:49:24.983Z,60.77
2018-10-11T08:51:53.324Z,48.80
2018-10-11T08:54:26.693Z,54.77
2018-10-11T08:56:55.004Z,48.43
2018-10-11T08:59:23.490Z,51.17
2018-10-11T09:01:51.690Z,53.63
2018-10-11T09:04:19.988Z,50.80
2018-10-11T09:06:48.293Z,46.60
2018-10-11T09:09:16.579Z,45.47
2018-10-11T09:11:44.952Z,61.13
2018-10-11T09:14:13.258Z,41.30
2018-10-11T09:16:41.647Z,46.13
2018-10-11T09:19:09.931Z,47.07
2018-10-11T09:21:38.336Z,41.77
2018-10-11T09:24:06.785Z,42.60
2018-10-11T09:26:35.088Z,40.23
2018-10-11T09:29:03.360Z,41.10
2018-10-11T09:31:31.704Z,39.53
2018-10-11T09:34:00.076Z,38.00
2018-10-11T09:36:28.430Z,35.03
2018-10-11T09:38:56.670Z,35.83
2018-10-11T09:41:25.043Z,36.37
2018-10-11T09:43:53.448Z,31.23
2018-10-11T09:46:22.035Z,34.57
2018-10-11T09:48:50.487Z,34.50
2018-10-11T09:51:18.680Z,36.10
2018-10-11T09:53:46.974Z,32.10
2018-10-11T09:56:15.360Z,30.60
2018-10-11T09:58:43.691Z,25.03
2018-10-11T10:01:17.184Z,25.47
2018-10-11T10:03:45.690Z,29.07
2018-10-11T10:06:14.008Z,27.23
2018-10-11T10:08:42.440Z,28.07
2018-10-11T10:11:10.701Z,26.13
2018-10-11T10:13:39.105Z,48.57
2018-10-11T10:16:07.456Z,31.70
2018-10-11T10:18:35.733Z,30.33
2018-10-11T10:21:04.231Z,31.67
2018-10-11T10:23:32.510Z,24.00
2018-10-11T10:26:00.872Z,25.23
2018-10-11T10:28:29.173Z,30.67
2018-10-11T10:30:57.716Z,24.60
2018-10-11T10:33:26.298Z,26.10
2018-10-11T10:35:54.656Z,30.37
2018-10-11T10:38:23.613Z,23.23
2018-10-11T10:40:52.351Z,27.17
2018-10-11T10:43:20.869Z,22.93
2018-10-11T10:45:49.390Z,33.60
2018-10-11T10:48:17.743Z,22.70
2018-10-11T10:50:46.094Z,23.50
2018-10-11T10:53:14.862Z,28.90
2018-10-11T10:55:43.332Z,23.50
2018-10-11T10:58:11.695Z,21.17
2018-10-11T11:00:40.074Z,22.77
2018-10-11T11:03:08.367Z,22.60
2018-10-11T11:05:36.667Z,27.43
2018-10-11T11:08:05.039Z,28.57
2018-10-11T11:10:33.366Z,22.43
2018-10-11T11:13:01.660Z,26.33
2018-10-11T11:15:30.267Z,21.40
2018-10-11T11:17:58.756Z,21.27
2018-10-11T11:20:27.112Z,20.27
2018-10-11T11:22:55.663Z,18.93
2018-10-11T11:25:24.212Z,22.43
2018-10-11T11:27:52.487Z,30.10
2018-10-11T11:30:20.940Z,20.60
2018-10-11T11:32:49.247Z,24.00
2018-10-11T11:35:17.705Z,21.40
2018-10-11T11:37:46.053Z,18.10
2018-10-11T11:40:14.338Z,23.50
2018-10-11T11:42:42.739Z,19.20
2018-10-11T11:45:11.067Z,18.57
2018-10-11T11:47:39.528Z,26.10
2018-10-11T11:50:08.090Z,18.73
2018-10-11T11:52:36.464Z,18.10
2018-10-11T11:55:04.840Z,19.07
2018-10-11T11:57:33.136Z,20.10
2018-10-11T12:00:01.496Z,19.77
2018-10-11T12:02:29.837Z,19.93
2018-10-11T12:04:58.117Z,18.03
2018-10-11T12:07:26.420Z,17.90
2018-10-11T12:09:54.704Z,15.93
2018-10-11T12:13:01.775Z,17.77
2018-10-11T12:15:30.921Z,12.03
2018-10-11T12:18:00.485Z,12.07
2018-10-11T12:20:30.845Z,16.53
2018-10-11T12:23:00.150Z,11.50
2018-10-11T12:25:28.963Z,11.70
2018-10-11T12:27:57.249Z,18.00
2018-10-11T12:30:25.608Z,10.87
2018-10-11T12:32:53.962Z,14.87
2018-10-11T12:35:23.266Z,11.83
2018-10-11T12:37:51.635Z,11.57
2018-10-11T12:40:20.098Z,13.13
2018-10-11T12:42:48.388Z,11.00
2018-10-11T12:45:17.314Z,11.60
2018-10-11T12:47:45.768Z,9.20
2018-10-11T12:50:14.314Z,11.23
2018-10-11T12:52:42.858Z,10.50
2018-10-11T12:55:11.361Z,10.00
2018-10-11T12:57:39.925Z,15.33
2018-10-11T13:00:09.868Z,12.17
2018-10-11T13:02:38.198Z,14.33
2018-10-11T13:05:06.616Z,10.93
2018-10-11T13:07:35.059Z,13.17
2018-10-11T13:10:03.774Z,13.20
2018-10-11T13:12:32.143Z,15.00
2018-10-11T13:15:00.476Z,14.97
2018-10-11T13:17:31.657Z,21.47
2018-10-11T13:19:57.363Z,16.87
2018-10-11T13:22:25.814Z,12.80
2018-10-11T13:24:54.176Z,18.97
2018-10-11T13:27:22.486Z,28.07
2018-10-11T13:29:51.015Z,17.53
2018-10-11T13:32:19.301Z,12.40
2018-10-11T13:34:47.775Z,15.70
2018-10-11T13:37:16.517Z,22.20
2018-10-11T13:39:52.023Z,29.73
2018-10-11T13:42:13.493Z,9.87
2018-10-11T13:44:41.942Z,11.27
2018-10-11T13:47:10.386Z,14.93
2018-10-11T13:49:38.779Z,11.40
2018-10-11T13:52:07.232Z,14.97
2018-10-11T13:54:35.665Z,12.37
2018-10-11T13:57:04.028Z,11.27
2018-10-11T13:59:32.366Z,11.50
2018-10-11T14:02:00.709Z,12.43
2018-10-11T14:04:29.036Z,22.20
2018-10-11T14:06:57.294Z,22.93
2018-10-11T14:09:25.696Z,14.73
2018-10-11T14:11:53.990Z,11.40
2018-10-11T14:14:22.664Z,13.93
2018-10-11T14:16:50.939Z,13.40
2018-10-11T14:19:19.309Z,21.37
2018-10-11T14:21:47.752Z,10.93
2018-10-11T14:24:16.214Z,9.43
2018-10-11T14:26:44.452Z,9.23
2018-10-11T14:29:12.767Z,9.37
2018-10-11T14:31:41.167Z,12.60
2018-10-11T14:34:09.873Z,10.03
2018-10-11T14:36:38.199Z,10.70
2018-10-11T14:39:07.596Z,15.93
2018-10-11T14:41:36.080Z,12.30
2018-10-11T14:44:04.905Z,19.07
2018-10-11T14:46:33.180Z,14.63
2018-10-11T14:49:01.483Z,14.60
2018-10-11T14:51:29.989Z,19.63
2018-10-11T14:53:59.565Z,16.73
2018-10-11T14:56:26.688Z,9.07
2018-10-11T14:58:54.962Z,8.47
2018-10-11T15:01:23.263Z,9.77
2018-10-11T15:03:52.614Z,12.70
2018-10-11T15:06:20.950Z,9.83
2018-10-11T15:08:49.282Z,9.70
2018-10-11T15:11:17.718Z,9.47
2018-10-11T15:13:45.943Z,12.40
2018-10-11T15:16:14.408Z,11.13
2018-10-11T15:18:42.691Z,11.03
2018-10-11T15:21:10.973Z,8.50
2018-10-11T15:23:39.328Z,10.37
2018-10-11T15:26:07.644Z,9.23
2018-10-11T15:28:36.281Z,8.37
2018-10-11T15:31:04.544Z,8.67
2018-10-11T15:33:32.942Z,10.67
2018-10-11T15:36:01.424Z,18.03
2018-10-11T15:38:29.860Z,16.40
2018-10-11T15:40:58.116Z,8.83
2018-10-11T15:43:26.525Z,8.90
2018-10-11T15:45:54.890Z,10.03
2018-10-11T15:48:23.195Z,12.83
2018-10-11T15:50:51.481Z,11.10
2018-10-11T15:53:19.868Z,12.33
2018-10-11T15:55:48.196Z,15.50
2018-10-11T15:58:16.443Z,15.17
2018-10-11T16:00:44.739Z,10.43
2018-10-11T16:03:13.076Z,9.70
2018-10-11T16:05:41.632Z,10.10
2018-10-11T16:08:09.715Z,11.87
2018-10-11T16:10:38.028Z,18.63
2018-10-11T16:13:06.340Z,12.47
2018-10-11T16:15:34.777Z,9.40
2018-10-11T16:18:03.108Z,12.93
2018-10-11T16:20:31.438Z,9.30
2018-10-11T16:22:59.740Z,16.00
2018-10-11T16:25:28.207Z,8.90
2018-10-11T16:27:56.639Z,10.47
2018-10-11T16:30:25.049Z,11.87
2018-10-11T16:32:53.364Z,12.53
2018-10-11T16:35:21.719Z,14.70
2018-10-11T16:37:49.974Z,8.93
2018-10-11T16:40:18.248Z,9.97
2018-10-11T16:42:46.572Z,14.97
2018-10-11T16:45:14.964Z,14.17
2018-10-11T16:47:43.473Z,10.93
2018-10-11T16:50:11.858Z,10.23
2018-10-11T16:52:40.139Z,10.20
2018-10-11T16:55:08.440Z,12.73
2018-10-11T16:57:36.781Z,12.13
2018-10-11T17:00:05.476Z,11.83
2018-10-11T17:02:33.886Z,11.23
2018-10-11T17:05:02.257Z,31.37
2018-10-11T17:07:30.698Z,12.83
2018-10-11T17:09:59.097Z,15.03
2018-10-11T17:12:27.358Z,12.60
2018-10-11T17:14:55.834Z,13.90
2018-10-11T17:17:24.144Z,11.23
2018-10-11T17:19:52.846Z,14.77
2018-10-11T17:23:23.882Z,14.87
2018-10-11T17:25:52.264Z,12.73
2018-10-11T17:28:21.003Z,15.27
2018-10-11T17:30:49.285Z,15.83
2018-10-11T17:33:17.643Z,13.33
2018-10-11T17:35:46.070Z,13.27
2018-10-11T17:38:14.480Z,13.73
2018-10-11T17:40:42.811Z,19.00
2018-10-11T17:43:11.133Z,15.83
2018-10-11T17:45:39.545Z,17.67
2018-10-11T17:48:07.978Z,25.13
2018-10-11T17:50:36.440Z,27.50
2018-10-11T17:53:05.362Z,21.20
2018-10-11T17:55:34.289Z,20.30
2018-10-11T17:59:31.925Z,22.83
2018-10-11T18:02:00.281Z,27.63
2018-10-11T18:04:28.680Z,26.87
2018-10-11T18:06:56.988Z,30.37
2018-10-11T18:09:25.584Z,17.80
2018-10-11T18:11:53.864Z,21.70
2018-10-11T18:14:22.935Z,15.50
2018-10-11T18:16:51.267Z,22.70
2018-10-11T18:19:19.505Z,21.40
2018-10-11T18:21:47.930Z,18.53
2018-10-11T18:24:16.168Z,25.83
2018-10-11T18:26:44.648Z,14.70
2018-10-11T18:29:13.152Z,18.93
2018-10-11T18:31:41.487Z,24.87
2018-10-11T18:34:09.805Z,15.30
2018-10-11T18:36:38.072Z,20.23
2018-10-11T18:39:11.017Z,16.03
2018-10-11T18:41:39.629Z,16.53
2018-10-11T18:44:08.282Z,15.43
2018-10-11T18:46:36.523Z,20.23
2018-10-11T18:49:04.920Z,23.83
2018-10-11T18:51:33.226Z,24.03
2018-10-11T18:54:01.512Z,21.53
2018-10-11T18:56:29.904Z,18.47
2018-10-11T18:58:58.180Z,24.23
2018-10-11T19:01:26.534Z,19.33
2018-10-11T19:03:55.072Z,23.60
2018-10-11T19:06:23.490Z,23.20
2018-10-11T19:08:51.808Z,29.47
2018-10-11T19:11:20.267Z,19.13
2018-10-11T19:13:48.766Z,19.77
2018-10-11T19:16:17.008Z,20.80
2018-10-11T19:18:45.355Z,20.20
2018-10-11T19:21:13.864Z,20.03
2018-10-11T19:23:42.124Z,18.83
2018-10-11T19:26:10.428Z,19.80
2018-10-11T19:28:38.755Z,24.43
2018-10-11T19:31:07.059Z,21.70
2018-10-11T19:33:35.445Z,18.67
2018-10-11T19:36:03.882Z,18.73
2018-10-11T19:38:32.248Z,23.07
2018-10-11T19:41:00.693Z,15.57
2018-10-11T19:43:28.941Z,25.97
2018-10-11T19:45:57.240Z,21.77
2018-10-11T19:48:25.547Z,20.97
2018-10-11T19:50:53.832Z,20.00
2018-10-11T19:53:22.223Z,16.90
2018-10-11T19:55:50.692Z,20.70
2018-10-11T19:58:19.051Z,20.70
2018-10-11T20:00:47.483Z,16.17
2018-10-11T20:03:15.985Z,17.60
2018-10-11T20:05:44.297Z,20.47
2018-10-11T20:08:12.805Z,36.07
2018-10-11T20:10:41.410Z,25.70
2018-10-11T20:13:09.716Z,19.73
2018-10-11T20:15:38.470Z,18.40
2018-10-11T20:18:06.869Z,21.10
2018-10-11T20:20:35.416Z,22.13
2018-10-11T20:23:03.795Z,19.57
2018-10-11T20:25:32.164Z,18.70
2018-10-11T20:28:00.453Z,19.40
2018-10-11T20:30:28.782Z,18.90
2018-10-11T20:32:57.226Z,21.57
2018-10-11T20:35:25.508Z,18.03
2018-10-11T20:37:54.034Z,18.40
2018-10-11T20:40:22.596Z,17.20
2018-10-11T20:42:51.150Z,15.97
2018-10-11T20:45:19.568Z,18.70
2018-10-11T20:47:47.919Z,21.27
2018-10-11T20:50:16.216Z,22.90
2018-10-11T20:52:45.557Z,21.90
2018-10-11T20:55:14.037Z,24.03
2018-10-11T20:57:42.445Z,21.10
2018-10-11T21:00:11.118Z,23.30
2018-10-11T21:02:39.611Z,17.33
2018-10-11T21:05:08.129Z,18.00
2018-10-11T21:07:36.652Z,19.40
2018-10-11T21:10:05.371Z,23.90
2018-10-11T21:12:33.660Z,21.63
2018-10-11T21:15:01.973Z,19.27
2018-10-11T21:17:30.271Z,25.33
2018-10-11T21:20:03.513Z,20.10
2018-10-11T21:22:31.772Z,28.17
2018-10-11T21:25:00.061Z,23.87
2018-10-11T21:27:28.423Z,17.60
2018-10-11T21:29:57.036Z,24.10
2018-10-11T21:32:25.432Z,22.20
2018-10-11T21:34:53.805Z,21.00
2018-10-11T21:37:22.266Z,21.07
2018-10-11T21:39:50.588Z,21.20
2018-10-11T21:42:19.728Z,20.63
2018-10-11T21:44:48.146Z,70.17
2018-10-11T21:47:16.484Z,27.33
2018-10-11T21:51:09.255Z,20.93
2018-10-11T21:53:37.633Z,18.63
2018-10-11T21:56:05.886Z,22.93
2018-10-11T21:58:34.200Z,21.63
2018-10-11T22:01:07.678Z,21.33
2018-10-11T22:03:35.998Z,19.53
2018-10-11T22:06:04.369Z,22.40
2018-10-11T22:08:32.777Z,21.87
2018-10-11T22:11:01.010Z,25.90
2018-10-11T22:13:29.430Z,20.80
2018-10-11T22:15:57.696Z,25.43
2018-10-11T22:18:26.014Z,19.60
2018-10-11T22:20:54.410Z,20.47
2018-10-11T22:23:22.962Z,29.07
2018-10-11T22:25:51.246Z,24.53
2018-10-11T22:28:19.645Z,22.90
2018-10-11T22:30:47.995Z,24.40
2018-10-11T22:33:16.335Z,23.10
2018-10-11T22:35:44.735Z,20.83
2018-10-11T22:38:13.096Z,25.73
2018-10-11T22:40:41.692Z,20.30
2018-10-11T22:43:10.134Z,20.93
2018-10-11T22:45:38.459Z,25.63
2018-10-11T22:48:06.815Z,25.90
2018-10-11T22:50:35.120Z,23.80
2018-10-11T22:53:03.507Z,20.63
2018-10-11T22:55:32.664Z,19.47
2018-10-11T22:58:01.513Z,18.60
2018-10-11T23:00:30.031Z,20.03
2018-10-11T23:02:58.304Z,24.07
2018-10-11T23:05:26.914Z,20.50
2018-10-11T23:07:55.290Z,16.27
2018-10-11T23:10:23.696Z,18.70
2018-10-11T23:12:52.039Z,21.17
2018-10-11T23:15:20.369Z,19.47
2018-10-11T23:17:48.770Z,23.67
2018-10-11T23:20:17.172Z,19.60
2018-10-11T23:22:45.497Z,20.83
2018-10-11T23:25:13.776Z,19.43
2018-10-11T23:27:42.301Z,14.63
2018-10-11T23:30:11.834Z,17.07
2018-10-11T23:32:40.999Z,16.30
2018-10-11T23:35:09.982Z,20.60
2018-10-11T23:37:38.411Z,18.30
2018-10-11T23:40:06.838Z,19.63
2018-10-11T23:42:35.220Z,22.13
2018-10-11T23:45:03.524Z,21.50
2018-10-11T23:47:31.848Z,21.10
2018-10-11T23:50:00.285Z,21.70
2018-10-11T23:52:28.752Z,19.53
2018-10-11T23:54:57.097Z,24.77
2018-10-11T23:57:25.422Z,22.07
2018-10-11T23:59:53.739Z,19.47
